createdAt,value
2018-10-01T00:00:54.266Z,12.90
2018-10-01T00:02:47.254Z,12.90
2018-10-01T00:03:47.316Z,12.86
2018-10-01T00:05:40.302Z,12.85
2018-10-01T00:06:40.353Z,12.85
2018-10-01T00:08:33.342Z,12.91
2018-10-01T00:09:33.402Z,12.82
2018-10-01T00:11:26.389Z,12.85
2018-10-01T00:12:26.442Z,12.86
2018-10-01T00:14:19.426Z,12.83
2018-10-01T00:15:19.489Z,12.76
2018-10-01T00:17:12.480Z,12.78
2018-10-01T00:18:12.529Z,12.76
2018-10-01T00:20:05.520Z,12.80
2018-10-01T00:21:05.572Z,12.75
2018-10-01T00:22:58.557Z,12.75
2018-10-01T00:23:58.614Z,12.73
2018-10-01T00:25:51.610Z,12.73
2018-10-01T00:26:51.659Z,12.67
2018-10-01T00:28:44.642Z,12.76
2018-10-01T00:29:44.704Z,12.78
2018-10-01T00:31:37.698Z,12.65
2018-10-01T00:32:37.742Z,12.67
2018-10-01T00:34:30.736Z,12.64
2018-10-01T00:35:30.791Z,12.53
2018-10-01T00:37:23.782Z,12.58
2018-10-01T00:38:23.837Z,12.60
2018-10-01T00:40:16.849Z,12.49
2018-10-01T00:41:16.873Z,12.46
2018-10-01T00:43:09.867Z,12.53
2018-10-01T00:44:09.916Z,12.50
2018-10-01T00:46:02.912Z,12.45
2018-10-01T00:47:02.964Z,12.45
2018-10-01T00:48:55.943Z,12.49
2018-10-01T00:49:56.005Z,12.45
2018-10-01T00:51:48.995Z,12.43
2018-10-01T00:52:49.044Z,12.43
2018-10-01T00:54:42.029Z,12.39
2018-10-01T00:55:42.085Z,12.40
2018-10-01T00:57:35.103Z,12.40
2018-10-01T00:58:35.129Z,12.42
2018-10-01T01:00:28.111Z,12.37
2018-10-01T01:01:28.171Z,12.36
2018-10-01T01:03:21.159Z,12.35
2018-10-01T01:04:21.223Z,12.39
2018-10-01T01:06:14.207Z,12.39
2018-10-01T01:07:14.256Z,12.39
2018-10-01T01:09:07.239Z,12.40
2018-10-01T01:10:07.298Z,12.36
2018-10-01T01:12:00.288Z,12.40
2018-10-01T01:13:00.341Z,12.29
2018-10-01T01:14:53.326Z,12.27
2018-10-01T01:15:53.383Z,12.25
2018-10-01T01:17:46.377Z,12.29
2018-10-01T01:18:46.432Z,12.27
2018-10-01T01:20:39.414Z,12.22
2018-10-01T01:21:39.472Z,12.24
2018-10-01T01:23:32.468Z,12.22
2018-10-01T01:24:32.515Z,12.20
2018-10-01T01:26:25.500Z,12.10
2018-10-01T01:27:25.560Z,12.24
2018-10-01T01:29:18.562Z,12.25
2018-10-01T01:30:18.618Z,12.21
2018-10-01T01:32:11.610Z,12.12
2018-10-01T01:33:11.662Z,12.21
2018-10-01T01:35:04.654Z,12.22
2018-10-01T01:36:04.710Z,12.15
2018-10-01T01:37:57.705Z,12.09
2018-10-01T01:38:57.755Z,12.12
2018-10-01T01:40:50.744Z,12.18
2018-10-01T01:41:50.800Z,12.00
2018-10-01T01:43:43.794Z,12.04
2018-10-01T01:44:43.844Z,12.00
2018-10-01T01:46:36.828Z,12.04
2018-10-01T01:47:36.887Z,11.91
2018-10-01T01:49:29.879Z,11.95
2018-10-01T01:50:29.930Z,11.88
2018-10-01T01:52:22.910Z,11.87
2018-10-01T01:53:22.970Z,11.88
2018-10-01T01:55:15.962Z,11.78
2018-10-01T01:56:16.009Z,11.75
2018-10-01T01:58:09.004Z,11.75
2018-10-01T01:59:09.053Z,11.69
2018-10-01T02:01:02.045Z,11.69
2018-10-01T02:02:02.099Z,11.66
2018-10-01T02:03:55.092Z,11.63
2018-10-01T02:04:55.141Z,11.65
2018-10-01T02:06:48.126Z,11.60
2018-10-01T02:07:48.184Z,11.59
2018-10-01T02:09:41.176Z,11.52
2018-10-01T02:10:41.225Z,11.54
2018-10-01T02:12:34.210Z,11.51
2018-10-01T02:13:34.266Z,11.50
2018-10-01T02:15:27.260Z,11.41
2018-10-01T02:16:27.311Z,11.41
2018-10-01T02:18:20.292Z,11.47
2018-10-01T02:19:20.349Z,11.41
2018-10-01T02:21:13.357Z,11.36
2018-10-01T02:22:13.398Z,11.23
2018-10-01T02:24:06.894Z,11.26
2018-10-01T02:25:06.947Z,11.19
2018-10-01T02:26:59.934Z,11.27
2018-10-01T02:27:59.989Z,11.22
2018-10-01T02:29:52.980Z,11.18
2018-10-01T02:30:53.029Z,11.22
2018-10-01T02:32:46.023Z,11.12
2018-10-01T02:33:46.078Z,11.11
2018-10-01T02:35:39.071Z,11.08
2018-10-01T02:36:39.118Z,11.15
2018-10-01T02:38:32.101Z,11.07
2018-10-01T02:39:32.161Z,11.05
2018-10-01T02:41:25.153Z,11.10
2018-10-01T02:42:25.206Z,11.07
2018-10-01T02:44:18.205Z,11.07
2018-10-01T02:45:18.248Z,10.99
2018-10-01T02:47:11.233Z,10.94
2018-10-01T02:48:11.294Z,10.89
2018-10-01T02:50:04.282Z,10.82
2018-10-01T02:51:04.330Z,10.86
2018-10-01T02:52:57.316Z,10.74
2018-10-01T02:53:57.376Z,10.61
2018-10-01T02:55:50.360Z,10.61
2018-10-01T02:56:50.417Z,10.57
2018-10-01T02:58:43.400Z,10.38
2018-10-01T02:59:43.459Z,10.51
2018-10-01T03:01:36.451Z,10.51
2018-10-01T03:02:36.504Z,10.53
2018-10-01T03:04:29.485Z,10.38
2018-10-01T03:05:29.543Z,10.38
2018-10-01T03:07:22.535Z,10.40
2018-10-01T03:08:22.581Z,10.53
2018-10-01T03:10:15.575Z,10.41
2018-10-01T03:11:15.624Z,10.53
2018-10-01T03:13:08.604Z,10.44
2018-10-01T03:14:08.667Z,10.38
2018-10-01T03:16:01.655Z,10.40
2018-10-01T03:17:01.708Z,10.46
2018-10-01T03:18:54.693Z,10.34
2018-10-01T03:19:54.751Z,10.37
2018-10-01T03:21:47.752Z,10.28
2018-10-01T03:22:47.793Z,10.28
2018-10-01T03:24:41.285Z,10.28
2018-10-01T03:25:41.340Z,10.33
2018-10-01T03:27:34.331Z,10.35
2018-10-01T03:28:34.380Z,10.33
2018-10-01T03:30:27.376Z,10.28
2018-10-01T03:31:27.433Z,10.25
2018-10-01T03:33:20.414Z,10.34
2018-10-01T03:34:20.468Z,10.31
2018-10-01T03:36:13.460Z,10.38
2018-10-01T03:37:13.508Z,10.41
2018-10-01T03:39:06.489Z,10.37
2018-10-01T03:40:06.595Z,10.38
2018-10-01T03:41:59.538Z,10.41
2018-10-01T03:42:59.589Z,10.38
2018-10-01T03:44:52.570Z,10.38
2018-10-01T03:45:52.629Z,10.37
2018-10-01T03:47:45.627Z,10.44
2018-10-01T03:48:45.671Z,10.53
2018-10-01T03:50:38.649Z,10.41
2018-10-01T03:51:38.709Z,10.54
2018-10-01T03:53:31.704Z,10.54
2018-10-01T03:54:31.752Z,10.53
2018-10-01T03:56:24.733Z,10.54
2018-10-01T03:57:24.790Z,10.56
2018-10-01T03:59:17.776Z,10.51
2018-10-01T04:00:17.831Z,10.51
2018-10-01T04:02:10.814Z,10.56
2018-10-01T04:03:10.919Z,10.56
2018-10-01T04:05:03.850Z,10.48
2018-10-01T04:06:03.906Z,10.48
2018-10-01T04:07:56.897Z,10.57
2018-10-01T04:08:57.025Z,10.46
2018-10-01T04:10:49.941Z,10.53
2018-10-01T04:11:49.991Z,10.53
2018-10-01T04:13:42.982Z,10.54
2018-10-01T04:14:43.030Z,10.54
2018-10-01T04:16:36.014Z,10.48
2018-10-01T04:17:36.071Z,10.51
2018-10-01T04:19:29.057Z,10.51
2018-10-01T04:20:29.109Z,10.51
2018-10-01T04:22:22.099Z,10.56
2018-10-01T04:23:22.153Z,10.54
2018-10-01T04:25:15.131Z,10.53
2018-10-01T04:26:15.190Z,10.56
2018-10-01T04:28:08.202Z,10.49
2018-10-01T04:29:08.231Z,10.49
2018-10-01T04:31:01.213Z,10.49
2018-10-01T04:32:01.269Z,10.49
2018-10-01T04:33:54.370Z,10.48
2018-10-01T04:34:54.311Z,10.54
2018-10-01T04:36:47.292Z,10.57
2018-10-01T04:37:47.350Z,10.51
2018-10-01T04:39:40.341Z,10.51
2018-10-01T04:40:40.413Z,10.51
2018-10-01T04:42:33.369Z,10.48
2018-10-01T04:43:33.430Z,10.51
2018-10-01T04:45:26.424Z,10.51
2018-10-01T04:46:26.476Z,10.51
2018-10-01T04:48:19.473Z,10.49
2018-10-01T04:49:19.519Z,10.53
2018-10-01T04:51:12.505Z,10.54
2018-10-01T04:52:12.562Z,10.51
2018-10-01T04:54:05.556Z,10.51
2018-10-01T04:55:05.604Z,10.49
2018-10-01T04:56:58.586Z,10.48
2018-10-01T04:57:58.678Z,10.54
2018-10-01T04:59:51.639Z,10.49
2018-10-01T05:00:51.694Z,10.56
2018-10-01T05:02:44.675Z,10.56
2018-10-01T05:03:44.734Z,10.54
2018-10-01T05:05:37.726Z,10.53
2018-10-01T05:06:37.777Z,10.54
2018-10-01T05:08:30.761Z,10.53
2018-10-01T05:09:30.817Z,10.54
2018-10-01T05:11:23.811Z,10.46
2018-10-01T05:12:23.869Z,10.44
2018-10-01T05:14:16.856Z,10.46
2018-10-01T05:15:16.906Z,10.41
2018-10-01T05:17:09.887Z,10.31
2018-10-01T05:18:09.944Z,10.19
2018-10-01T05:20:02.938Z,10.30
2018-10-01T05:21:02.989Z,10.10
2018-10-01T05:22:55.974Z,10.12
2018-10-01T05:23:56.031Z,10.12
2018-10-01T05:25:49.079Z,10.04
2018-10-01T05:26:49.070Z,10.01
2018-10-01T05:28:42.052Z,9.84
2018-10-01T05:29:42.109Z,9.95
2018-10-01T05:31:35.101Z,9.89
2018-10-01T05:32:35.148Z,9.92
2018-10-01T05:34:28.130Z,9.91
2018-10-01T05:35:28.186Z,9.80
2018-10-01T05:37:21.179Z,9.87
2018-10-01T05:38:21.229Z,9.72
2018-10-01T05:40:14.220Z,9.80
2018-10-01T05:41:14.267Z,9.73
2018-10-01T05:43:07.253Z,9.73
2018-10-01T05:44:07.314Z,9.80
2018-10-01T05:46:00.305Z,9.74
2018-10-01T05:47:00.351Z,9.74
2018-10-01T05:48:53.330Z,9.73
2018-10-01T05:49:53.392Z,9.73
2018-10-01T05:51:46.374Z,9.65
2018-10-01T05:52:46.431Z,9.62
2018-10-01T05:54:39.420Z,9.62
2018-10-01T05:55:39.479Z,9.68
2018-10-01T05:57:32.547Z,9.61
2018-10-01T05:58:32.520Z,9.55
2018-10-01T06:00:25.504Z,9.56
2018-10-01T06:01:25.561Z,9.50
2018-10-01T06:03:18.554Z,9.58
2018-10-01T06:04:18.601Z,9.58
2018-10-01T06:06:11.595Z,9.61
2018-10-01T06:07:11.639Z,9.61
2018-10-01T06:09:04.620Z,9.73
2018-10-01T06:10:04.677Z,9.69
2018-10-01T06:11:57.737Z,9.76
2018-10-01T06:12:57.717Z,9.74
2018-10-01T06:14:50.700Z,9.74
2018-10-01T06:15:50.759Z,9.69
2018-10-01T06:17:43.749Z,9.69
2018-10-01T06:18:43.802Z,9.74
2018-10-01T06:20:36.781Z,9.68
2018-10-01T06:21:36.839Z,9.65
2018-10-01T06:23:29.829Z,9.64
2018-10-01T06:24:29.880Z,9.73
2018-10-01T06:26:22.870Z,9.73
2018-10-01T06:27:22.919Z,9.80
2018-10-01T06:29:15.901Z,9.87
2018-10-01T06:30:15.958Z,9.92
2018-10-01T06:32:08.949Z,9.92
2018-10-01T06:33:08.996Z,9.99
2018-10-01T06:35:01.983Z,9.98
2018-10-01T06:36:02.037Z,9.99
2018-10-01T06:37:55.052Z,10.15
2018-10-01T06:38:55.081Z,10.26
2018-10-01T06:40:48.060Z,10.46
2018-10-01T06:41:48.198Z,10.56
2018-10-01T06:43:41.108Z,10.68
2018-10-01T06:44:41.156Z,10.78
2018-10-01T06:46:34.138Z,11.00
2018-10-01T06:47:34.196Z,11.18
2018-10-01T06:49:27.187Z,11.40
2018-10-01T06:50:27.233Z,11.54
2018-10-01T06:52:20.219Z,12.09
2018-10-01T06:53:20.276Z,12.54
2018-10-01T06:55:13.266Z,13.52
2018-10-01T06:56:13.315Z,14.00
2018-10-01T06:58:06.307Z,15.47
2018-10-01T06:59:06.357Z,16.15
2018-10-01T07:00:59.338Z,16.71
2018-10-01T07:01:59.397Z,17.04
2018-10-01T07:03:52.394Z,18.29
2018-10-01T07:04:52.444Z,18.56
2018-10-01T07:06:45.425Z,19.54
2018-10-01T07:07:45.489Z,19.92
2018-10-01T07:09:38.482Z,20.65
2018-10-01T07:10:38.540Z,20.97
2018-10-01T07:12:31.533Z,20.95
2018-10-01T07:13:31.593Z,19.54
2018-10-01T07:15:24.590Z,17.92
2018-10-01T07:16:24.713Z,17.59
2018-10-01T07:18:17.678Z,16.56
2018-10-01T07:19:17.707Z,15.98
2018-10-01T07:21:10.683Z,17.05
2018-10-01T07:22:10.741Z,17.54
2018-10-01T07:24:03.737Z,19.16
2018-10-01T07:25:03.793Z,19.64
2018-10-01T07:26:56.780Z,20.25
2018-10-01T07:27:56.841Z,20.87
2018-10-01T07:29:49.837Z,21.54
2018-10-01T07:30:49.892Z,21.48
2018-10-01T07:32:43.389Z,21.95
2018-10-01T07:33:43.450Z,21.64
2018-10-01T07:35:36.451Z,21.77
2018-10-01T07:36:36.507Z,21.96
2018-10-01T07:38:29.498Z,21.91
2018-10-01T07:39:29.561Z,22.14
2018-10-01T07:41:22.560Z,21.70
2018-10-01T07:42:22.616Z,21.66
2018-10-01T07:44:15.618Z,22.18
2018-10-01T07:45:15.910Z,22.59
2018-10-01T07:47:08.675Z,21.96
2018-10-01T07:48:08.730Z,22.15
2018-10-01T07:50:01.761Z,22.07
2018-10-01T07:51:01.899Z,22.18
2018-10-01T07:52:54.783Z,22.57
2018-10-01T07:53:54.847Z,22.66
2018-10-01T07:55:47.848Z,22.02
2018-10-01T07:56:47.906Z,22.02
2018-10-01T07:58:40.903Z,22.17
2018-10-01T07:59:41.170Z,22.38
2018-10-01T08:01:33.970Z,22.14
2018-10-01T08:02:34.077Z,22.33
2018-10-01T08:04:27.026Z,21.92
2018-10-01T08:05:27.090Z,21.48
2018-10-01T08:07:20.096Z,22.30
2018-10-01T08:08:20.184Z,22.44
2018-10-01T08:10:13.147Z,22.50
2018-10-01T08:11:13.212Z,22.45
2018-10-01T08:13:06.214Z,22.68
2018-10-01T08:14:06.333Z,23.02
2018-10-01T08:15:59.276Z,23.08
2018-10-01T08:16:59.335Z,22.60
2018-10-01T08:18:52.339Z,22.91
2018-10-01T08:19:52.398Z,23.02
2018-10-01T08:21:45.402Z,22.51
2018-10-01T08:22:45.468Z,22.87
2018-10-01T08:24:38.461Z,23.34
2018-10-01T08:25:38.524Z,23.37
2018-10-01T08:27:32.493Z,23.41
2018-10-01T08:28:31.594Z,23.36
2018-10-01T08:30:24.582Z,23.36
2018-10-01T08:31:24.646Z,23.27
2018-10-01T08:33:18.159Z,22.43
2018-10-01T08:34:18.219Z,22.18
2018-10-01T08:36:11.221Z,22.20
2018-10-01T08:37:11.289Z,22.14
2018-10-01T08:39:04.374Z,22.48
2018-10-01T08:40:04.351Z,22.43
2018-10-01T08:41:57.356Z,22.44
2018-10-01T08:42:57.421Z,22.33
2018-10-01T08:44:50.426Z,21.58
2018-10-01T08:45:50.486Z,20.81
2018-10-01T08:47:43.544Z,19.24
2018-10-01T08:48:43.548Z,18.43
2018-10-01T08:50:36.558Z,18.00
2018-10-01T08:51:36.654Z,17.46
2018-10-01T08:53:29.661Z,16.91
2018-10-01T08:54:29.667Z,16.71
2018-10-01T08:56:22.675Z,16.71
2018-10-01T08:57:22.727Z,16.87
2018-10-01T08:59:15.812Z,16.69
2018-10-01T09:00:15.782Z,16.76
2018-10-01T09:02:08.809Z,16.53
2018-10-01T09:03:08.837Z,16.35
2018-10-01T09:05:01.841Z,16.42
2018-10-01T09:06:01.891Z,16.43
2018-10-01T09:07:54.915Z,16.39
2018-10-01T09:08:54.944Z,16.28
2018-10-01T09:10:47.941Z,16.28
2018-10-01T09:11:48.000Z,16.26
2018-10-01T09:13:40.987Z,16.09
2018-10-01T09:14:41.131Z,16.01
2018-10-01T09:16:34.047Z,16.21
2018-10-01T09:17:34.165Z,16.08
2018-10-01T09:19:27.102Z,15.79
2018-10-01T09:20:27.186Z,15.76
2018-10-01T09:22:20.156Z,16.24
2018-10-01T09:23:20.221Z,16.50
2018-10-01T09:25:13.217Z,16.89
2018-10-01T09:26:13.336Z,16.87
2018-10-01T09:28:06.267Z,16.83
2018-10-01T09:29:06.350Z,16.72
2018-10-01T09:30:59.387Z,16.87
2018-10-01T09:31:59.438Z,16.84
2018-10-01T09:33:52.373Z,16.68
2018-10-01T09:34:52.437Z,16.61
2018-10-01T09:36:45.435Z,16.65
2018-10-01T09:37:45.488Z,16.75
2018-10-01T09:39:38.485Z,16.71
2018-10-01T09:40:38.570Z,16.61
2018-10-01T09:42:31.527Z,16.38
2018-10-01T09:43:31.588Z,16.36
2018-10-01T09:45:24.585Z,16.16
2018-10-01T09:46:24.687Z,16.09
2018-10-01T09:48:17.635Z,15.72
2018-10-01T09:49:17.694Z,15.59
2018-10-01T09:51:10.693Z,15.49
2018-10-01T09:52:10.762Z,15.47
2018-10-01T09:54:03.740Z,15.39
2018-10-01T09:55:03.799Z,15.37
2018-10-01T09:56:56.795Z,15.88
2018-10-01T09:57:56.863Z,16.20
2018-10-01T09:59:49.839Z,16.43
2018-10-01T10:00:49.900Z,16.53
2018-10-01T10:02:42.897Z,16.78
2018-10-01T10:03:42.951Z,16.71
2018-10-01T10:05:35.943Z,16.50
2018-10-01T10:06:36.001Z,16.21
2018-10-01T10:08:29.022Z,15.91
2018-10-01T10:09:29.060Z,15.76
2018-10-01T10:11:22.098Z,15.57
2018-10-01T10:12:22.101Z,15.51
2018-10-01T10:14:15.161Z,15.40
2018-10-01T10:15:15.152Z,15.44
2018-10-01T10:17:08.194Z,15.24
2018-10-01T10:18:08.239Z,15.27
2018-10-01T10:20:01.208Z,15.42
2018-10-01T10:21:01.254Z,15.44
2018-10-01T10:22:54.249Z,15.82
2018-10-01T10:23:54.301Z,16.02
2018-10-01T10:25:47.291Z,15.90
2018-10-01T10:26:47.350Z,16.05
2018-10-01T10:28:40.348Z,16.21
2018-10-01T10:29:40.403Z,16.42
2018-10-01T10:31:33.392Z,16.71
2018-10-01T10:32:33.509Z,16.65
2018-10-01T10:34:26.536Z,16.81
2018-10-01T10:35:26.594Z,16.60
2018-10-01T10:37:19.545Z,16.32
2018-10-01T10:38:19.609Z,16.33
2018-10-01T10:40:12.660Z,16.23
2018-10-01T10:41:12.641Z,16.24
2018-10-01T10:43:05.637Z,15.98
2018-10-01T10:44:05.748Z,15.73
2018-10-01T10:45:58.690Z,15.43
2018-10-01T10:46:58.745Z,15.37
2018-10-01T10:48:51.745Z,14.77
2018-10-01T10:49:51.799Z,14.37
2018-10-01T10:51:44.783Z,13.90
2018-10-01T10:52:44.846Z,13.63
2018-10-01T10:54:37.851Z,13.47
2018-10-01T10:55:37.904Z,13.44
2018-10-01T10:57:30.895Z,13.52
2018-10-01T10:58:30.957Z,13.42
2018-10-01T11:00:23.953Z,13.52
2018-10-01T11:01:24.010Z,13.72
2018-10-01T11:03:17.001Z,13.90
2018-10-01T11:04:17.052Z,14.07
2018-10-01T11:06:10.044Z,14.15
2018-10-01T11:07:10.152Z,14.20
2018-10-01T11:09:03.098Z,14.28
2018-10-01T11:10:03.152Z,14.20
2018-10-01T11:11:56.142Z,14.03
2018-10-01T11:12:56.201Z,14.04
2018-10-01T11:14:49.344Z,14.08
2018-10-01T11:15:49.249Z,14.20
2018-10-01T11:17:42.253Z,14.45
2018-10-01T11:18:42.448Z,14.60
2018-10-01T11:20:35.308Z,14.47
2018-10-01T11:21:35.435Z,14.51
2018-10-01T11:23:28.367Z,14.63
2018-10-01T11:24:28.405Z,14.55
2018-10-01T11:26:21.399Z,14.45
2018-10-01T11:27:21.613Z,14.50
2018-10-01T11:29:14.448Z,14.53
2018-10-01T11:30:14.501Z,14.77
2018-10-01T11:32:07.491Z,14.73
2018-10-01T11:33:07.569Z,14.84
2018-10-01T11:35:00.632Z,14.88
2018-10-01T11:36:00.599Z,14.72
2018-10-01T11:37:53.589Z,14.69
2018-10-01T11:38:53.644Z,14.63
2018-10-01T11:40:46.641Z,14.59
2018-10-01T11:41:46.692Z,14.79
2018-10-01T11:43:39.679Z,14.78
2018-10-01T11:44:39.740Z,14.73
2018-10-01T11:46:32.734Z,14.22
2018-10-01T11:47:32.795Z,13.90
2018-10-01T11:49:25.773Z,13.39
2018-10-01T11:50:25.834Z,13.23
2018-10-01T11:52:18.828Z,13.15
2018-10-01T11:53:18.887Z,12.90
2018-10-01T11:55:11.899Z,12.80
2018-10-01T11:56:11.938Z,12.73
2018-10-01T11:58:04.927Z,12.78
2018-10-01T11:59:04.986Z,12.73
2018-10-01T12:00:57.987Z,12.58
2018-10-01T12:01:58.034Z,12.58
2018-10-01T12:03:51.097Z,12.50
2018-10-01T12:04:51.080Z,12.50
2018-10-01T12:06:44.074Z,12.64
2018-10-01T12:07:44.130Z,12.75
2018-10-01T12:09:37.214Z,13.08
2018-10-01T12:10:37.203Z,13.22
2018-10-01T12:12:30.169Z,13.52
2018-10-01T12:13:30.220Z,13.67
2018-10-01T12:15:23.277Z,13.75
2018-10-01T12:16:23.265Z,13.87
2018-10-01T12:18:16.260Z,13.99
2018-10-01T12:19:16.313Z,13.87
2018-10-01T12:21:09.515Z,13.99
2018-10-01T12:22:09.463Z,13.93
2018-10-01T12:24:02.364Z,14.08
2018-10-01T12:25:02.409Z,14.05
2018-10-01T12:26:55.462Z,14.17
2018-10-01T12:27:55.467Z,14.28
2018-10-01T12:29:48.456Z,14.29
2018-10-01T12:30:48.518Z,14.26
2018-10-01T12:32:41.513Z,14.30
2018-10-01T12:33:41.675Z,14.18
2018-10-01T12:35:34.550Z,14.20
2018-10-01T12:36:34.611Z,14.25
2018-10-01T12:38:27.606Z,14.30
2018-10-01T12:39:27.709Z,14.17
2018-10-01T12:41:20.647Z,14.17
2018-10-01T12:42:20.710Z,14.18
2018-10-01T12:44:13.708Z,14.30
2018-10-01T12:45:13.803Z,14.35
2018-10-01T12:47:06.758Z,14.30
2018-10-01T12:48:06.807Z,14.25
2018-10-01T12:49:59.794Z,14.29
2018-10-01T12:50:59.892Z,14.32
2018-10-01T12:52:52.849Z,14.28
2018-10-01T12:53:52.903Z,14.29
2018-10-01T12:55:45.890Z,14.40
2018-10-01T12:56:45.948Z,14.44
2018-10-01T12:58:38.942Z,14.33
2018-10-01T12:59:39.126Z,14.32
2018-10-01T13:01:31.979Z,14.33
2018-10-01T13:02:32.040Z,14.51
2018-10-01T13:04:25.034Z,14.43
2018-10-01T13:05:25.088Z,14.50
2018-10-01T13:07:18.074Z,14.62
2018-10-01T13:08:18.136Z,14.51
2018-10-01T13:10:11.125Z,14.63
2018-10-01T13:11:11.180Z,14.73
2018-10-01T13:13:04.175Z,14.91
2018-10-01T13:14:04.227Z,14.96
2018-10-01T13:15:57.220Z,15.36
2018-10-01T13:16:57.272Z,15.55
2018-10-01T13:18:50.269Z,15.73
2018-10-01T13:19:50.320Z,15.65
2018-10-01T13:21:43.314Z,14.81
2018-10-01T13:22:43.376Z,14.44
2018-10-01T13:24:36.387Z,14.08
2018-10-01T13:25:36.423Z,14.00
2018-10-01T13:27:29.410Z,13.96
2018-10-01T13:28:29.469Z,13.87
2018-10-01T13:30:22.561Z,13.60
2018-10-01T13:31:22.527Z,13.47
2018-10-01T13:33:16.033Z,13.37
2018-10-01T13:34:16.078Z,13.33
2018-10-01T13:36:09.094Z,13.50
2018-10-01T13:37:09.128Z,13.57
2018-10-01T13:39:02.126Z,13.79
2018-10-01T13:40:02.175Z,13.90
2018-10-01T13:41:55.162Z,13.97
2018-10-01T13:42:55.221Z,13.92
2018-10-01T13:44:48.216Z,13.96
2018-10-01T13:45:48.267Z,13.95
2018-10-01T13:47:41.252Z,13.89
2018-10-01T13:48:41.418Z,13.92
2018-10-01T13:50:34.307Z,14.03
2018-10-01T13:51:34.360Z,14.26
2018-10-01T13:53:27.345Z,15.07
2018-10-01T13:54:27.411Z,15.51
2018-10-01T13:56:20.397Z,15.94
2018-10-01T13:57:20.462Z,16.09
2018-10-01T13:59:13.439Z,16.38
2018-10-01T14:00:13.500Z,16.58
2018-10-01T14:02:06.554Z,17.16
2018-10-01T14:03:06.550Z,17.08
2018-10-01T14:04:59.567Z,17.08
2018-10-01T14:05:59.608Z,17.08
2018-10-01T14:07:52.598Z,17.11
2018-10-01T14:08:52.661Z,17.15
2018-10-01T14:10:45.656Z,17.08
2018-10-01T14:11:45.713Z,17.11
2018-10-01T14:13:38.740Z,16.72
2018-10-01T14:14:38.770Z,16.36
2018-10-01T14:16:31.765Z,15.95
2018-10-01T14:17:31.817Z,15.72
2018-10-01T14:19:24.814Z,15.44
2018-10-01T14:20:24.865Z,15.09
2018-10-01T14:22:17.861Z,14.73
2018-10-01T14:23:17.918Z,14.54
2018-10-01T14:25:10.918Z,13.90
2018-10-01T14:26:10.965Z,13.65
2018-10-01T14:28:03.960Z,13.41
2018-10-01T14:29:04.004Z,13.46
2018-10-01T14:30:57.082Z,13.15
2018-10-01T14:31:57.056Z,13.18
2018-10-01T14:33:50.546Z,13.19
2018-10-01T14:34:50.606Z,13.31
2018-10-01T14:36:43.692Z,13.42
2018-10-01T14:37:43.662Z,13.42
2018-10-01T14:39:36.669Z,13.33
2018-10-01T14:40:36.720Z,13.25
2018-10-01T14:42:29.761Z,13.18
2018-10-01T14:43:29.782Z,13.09
2018-10-01T14:45:22.758Z,12.98
2018-10-01T14:46:22.818Z,12.95
2018-10-01T14:48:15.897Z,12.90
2018-10-01T14:49:15.864Z,12.90
2018-10-01T14:51:08.908Z,12.64
2018-10-01T14:52:08.907Z,12.62
2018-10-01T14:54:01.900Z,12.55
2018-10-01T14:55:01.955Z,12.55
2018-10-01T14:56:54.989Z,12.50
2018-10-01T14:57:54.996Z,12.70
2018-10-01T14:59:47.990Z,12.64
2018-10-01T15:00:48.102Z,12.64
2018-10-01T15:02:41.051Z,12.68
2018-10-01T15:03:41.117Z,12.75
2018-10-01T15:05:34.088Z,12.70
2018-10-01T15:06:34.186Z,12.70
2018-10-01T15:08:27.137Z,12.57
2018-10-01T15:09:27.197Z,12.49
2018-10-01T15:11:20.198Z,12.47
2018-10-01T15:12:20.256Z,12.50
2018-10-01T15:14:13.241Z,12.50
2018-10-01T15:15:13.297Z,12.49
2018-10-01T15:17:06.292Z,12.53
2018-10-01T15:18:06.336Z,12.55
2018-10-01T15:19:59.320Z,12.10
2018-10-01T15:20:59.375Z,12.00
2018-10-01T15:22:52.405Z,11.88
2018-10-01T15:23:52.423Z,11.70
2018-10-01T15:25:45.406Z,11.75
2018-10-01T15:26:45.473Z,11.72
2018-10-01T15:28:38.463Z,11.84
2018-10-01T15:29:38.790Z,11.84
2018-10-01T15:31:31.496Z,12.03
2018-10-01T15:32:31.558Z,12.04
2018-10-01T15:34:24.559Z,12.28
2018-10-01T15:35:24.707Z,12.43
2018-10-01T15:37:17.594Z,12.49
2018-10-01T15:38:17.655Z,12.42
2018-10-01T15:40:10.806Z,12.39
2018-10-01T15:41:10.931Z,12.42
2018-10-01T15:43:03.687Z,12.29
2018-10-01T15:44:03.747Z,12.39
2018-10-01T15:45:56.726Z,12.39
2018-10-01T15:46:56.789Z,12.32
2018-10-01T15:48:49.773Z,12.25
2018-10-01T15:49:49.829Z,12.29
2018-10-01T15:51:42.808Z,12.31
2018-10-01T15:52:42.869Z,12.28
2018-10-01T15:54:35.857Z,12.31
2018-10-01T15:55:35.909Z,12.20
2018-10-01T15:57:28.891Z,12.20
2018-10-01T15:58:28.953Z,12.22
2018-10-01T16:00:21.941Z,12.07
2018-10-01T16:01:21.990Z,12.07
2018-10-01T16:03:15.003Z,12.12
2018-10-01T16:04:15.044Z,12.04
2018-10-01T16:06:08.034Z,12.18
2018-10-01T16:07:08.088Z,12.09
2018-10-01T16:09:01.069Z,11.95
2018-10-01T16:10:01.130Z,12.04
2018-10-01T16:11:54.252Z,12.00
2018-10-01T16:12:54.221Z,11.90
2018-10-01T16:14:47.214Z,12.02
2018-10-01T16:15:47.264Z,12.02
2018-10-01T16:17:40.247Z,12.00
2018-10-01T16:18:40.307Z,11.97
2018-10-01T16:20:33.300Z,11.95
2018-10-01T16:21:33.348Z,11.95
2018-10-01T16:23:26.329Z,11.90
2018-10-01T16:24:26.389Z,11.84
2018-10-01T16:26:19.381Z,11.90
2018-10-01T16:27:19.429Z,11.88
2018-10-01T16:29:12.422Z,11.80
2018-10-01T16:30:12.479Z,11.77
2018-10-01T16:32:05.467Z,11.73
2018-10-01T16:33:05.524Z,11.72
2018-10-01T16:34:58.508Z,11.73
2018-10-01T16:35:58.559Z,11.68
2018-10-01T16:37:51.543Z,11.65
2018-10-01T16:38:51.604Z,11.51
2018-10-01T16:40:44.640Z,11.52
2018-10-01T16:41:44.655Z,11.48
2018-10-01T16:43:37.626Z,11.45
2018-10-01T16:44:37.682Z,11.43
2018-10-01T16:46:30.674Z,11.40
2018-10-01T16:47:30.729Z,11.41
2018-10-01T16:49:23.792Z,11.43
2018-10-01T16:50:23.783Z,11.32
2018-10-01T16:52:16.846Z,11.22
2018-10-01T16:53:16.831Z,11.19
2018-10-01T16:55:09.821Z,11.23
2018-10-01T16:56:09.887Z,11.10
2018-10-01T16:58:02.866Z,11.18
2018-10-01T16:59:02.918Z,11.12
2018-10-01T17:00:55.924Z,11.05
2018-10-01T17:01:55.966Z,11.02
2018-10-01T17:03:48.947Z,11.10
2018-10-01T17:04:49.006Z,11.00
2018-10-01T17:06:41.999Z,10.89
2018-10-01T17:07:42.042Z,10.99
2018-10-01T17:09:35.024Z,10.96
2018-10-01T17:10:35.083Z,10.97
2018-10-01T17:12:28.085Z,10.92
2018-10-01T17:13:28.159Z,10.90
2018-10-01T17:15:21.191Z,11.00
2018-10-01T17:16:21.181Z,10.97
2018-10-01T17:18:14.170Z,10.94
2018-10-01T17:19:14.219Z,10.97
2018-10-01T17:21:07.212Z,10.89
2018-10-01T17:22:07.266Z,10.97
2018-10-01T17:24:00.266Z,10.89
2018-10-01T17:25:00.343Z,10.90
2018-10-01T17:26:53.304Z,10.99
2018-10-01T17:27:53.362Z,10.99
2018-10-01T17:29:46.339Z,10.97
2018-10-01T17:30:46.399Z,10.81
2018-10-01T17:32:39.385Z,10.79
2018-10-01T17:33:39.441Z,10.75
2018-10-01T17:35:32.431Z,10.75
2018-10-01T17:36:32.478Z,10.61
2018-10-01T17:38:25.468Z,10.61
2018-10-01T17:39:25.519Z,10.64
2018-10-01T17:41:18.517Z,10.57
2018-10-01T17:42:18.563Z,10.54
2018-10-01T17:44:11.550Z,10.56
2018-10-01T17:45:11.604Z,10.54
2018-10-01T17:47:04.587Z,10.46
2018-10-01T17:48:04.647Z,10.42
2018-10-01T17:49:57.639Z,10.30
2018-10-01T17:50:57.691Z,10.26
2018-10-01T17:52:50.691Z,10.17
2018-10-01T17:53:50.731Z,10.30
2018-10-01T17:55:43.714Z,10.15
2018-10-01T17:56:43.773Z,10.19
2018-10-01T17:58:36.760Z,10.12
2018-10-01T17:59:36.808Z,10.16
2018-10-01T18:01:29.791Z,10.17
2018-10-01T18:02:29.846Z,10.17
2018-10-01T18:04:22.932Z,10.09
2018-10-01T18:05:22.886Z,10.04
2018-10-01T18:07:15.866Z,10.01
2018-10-01T18:08:15.924Z,9.92
2018-10-01T18:10:08.918Z,9.92
2018-10-01T18:11:08.970Z,9.87
2018-10-01T18:13:01.952Z,9.87
2018-10-01T18:14:02.009Z,9.87
2018-10-01T18:15:55.000Z,9.95
2018-10-01T18:16:55.049Z,9.94
2018-10-01T18:18:48.058Z,9.98
2018-10-01T18:19:48.086Z,9.98
2018-10-01T18:21:41.111Z,9.98
2018-10-01T18:22:41.124Z,10.04
2018-10-01T18:24:34.117Z,10.04
2018-10-01T18:25:34.165Z,10.15
2018-10-01T18:27:27.149Z,10.10
2018-10-01T18:28:27.208Z,10.17
2018-10-01T18:30:20.249Z,10.15
2018-10-01T18:31:20.248Z,10.07
2018-10-01T18:33:14.735Z,10.13
2018-10-01T18:34:14.792Z,10.20
2018-10-01T18:36:07.834Z,10.26
2018-10-01T18:37:07.842Z,10.28